الصفحة الرئيسية
METAR-TAF:

METAR-TAF

مطار :

Limón, كوستاريكا

دائرة عرض: 10-00N, خط طول: 083-03W, ارتفاع: 5 متر

مراقبة الطقس الحالي

تاريخ ووقت الإصدار 4ساعات و 32 دقيقة قبل الساعة 22:00UTC
ريح 7 عقدة من الشمال/الشمال الشرقي
درجة الحرارة 29°درجة مئوية
الرطوبة 79%
ضغط 1006 hPa
الرؤية 10 كم أو أكثر
غيوم متفرقة على ارتفاع 1500 قدم
غيوم مفككة على ارتفاع 22000 قدم

METAR: MRLM 252200Z 03007KT 9999 SCT015 BKN220 29/25 A2972

زمن: 20:32 (02:32 UTC)

توقعات

تاريخ ووقت الإصدار 3ساعات و 32 دقيقة قبل الساعة 23:00UTC
التوقعات صالحة من26 الساعة 00 UTC إلى 26 الساعة 24 UTC
ريح 5 عقدة من الشرق/الشمال الشرقي
الرؤية 10 كم أو أكثر
غيوم متفرقة على ارتفاع 1500 قدم
مؤقت
من 26 الساعة 00 UTC إلى 26 الساعة 04 UTC
غيوم مفككة على ارتفاع 2000 قدم
مطر
أصبح
من 26 الساعة 02 UTC إلى 26 الساعة 05 UTC
ريح 5 عقدة من الغرب
أصبح
من 26 الساعة 15 UTC إلى 26 الساعة 18 UTC
ريح 5 عقدة من الشمال الشرقي

TAF: MRLM 252300Z 2600/2624 06005KT 9999 SCT015 TX31/2619Z TN22/2611Z TEMPO 2600/2604 RA BKN020 BECMG 2602/2605 26005KT BECMG 2615/2618 05005KT

أرصاد الطقس والتوقعات من أكثر من 4000 مطار (تقارير الطقس للمطار METAR والتنبؤ بالطقس بالمطارTAF).

المحطات المتاحة هي النقط الصفراء والحمراء على الخريطة.

حرك المؤشر فوق النقطة لمعرفة اسم المحطة.

ثم انقر لمعرفة أرصاد وتوقعات الطقس.

لتغيير الخارطة: اضغط على الأزرار الخضراء مع رمز الصليب الأسود للتكبير. على الزر الأخضر مع شرطة للتصغير، أو على الأسهم الخضراء للخرائط المجاورة.


METAR-TAF: